sensor_id;sensor_type;location;lat;lon;timestamp;P1;durP1;ratioP1;P2;durP2;ratioP2
65071;SDS011;51663;52.310;17.016;2023-04-03T00:02:29;5.37;;;2.33;;
65071;SDS011;51663;52.310;17.016;2023-04-03T00:05:39;6.07;;;2.40;;
65071;SDS011;51663;52.310;17.016;2023-04-03T00:08:49;4.80;;;1.97;;
65071;SDS011;51663;52.310;17.016;2023-04-03T00:11:55;5.60;;;1.80;;
65071;SDS011;51663;52.310;17.016;2023-04-03T00:14:57;3.60;;;1.80;;
65071;SDS011;51663;52.310;17.016;2023-04-03T00:18:06;7.10;;;2.77;;
65071;SDS011;51663;52.310;17.016;2023-04-03T00:21:10;6.33;;;2.43;;
65071;SDS011;51663;52.310;17.016;2023-04-03T00:24:16;6.47;;;2.07;;
65071;SDS011;51663;52.310;17.016;2023-04-03T00:27:40;4.63;;;1.97;;
65071;SDS011;51663;52.310;17.016;2023-04-03T00:30:46;6.50;;;2.27;;
65071;SDS011;51663;52.310;17.016;2023-04-03T00:33:52;4.53;;;2.90;;
65071;SDS011;51663;52.310;17.016;2023-04-03T00:36:58;5.70;;;2.70;;
65071;SDS011;51663;52.310;17.016;2023-04-03T00:40:05;4.63;;;2.10;;
65071;SDS011;51663;52.310;17.016;2023-04-03T00:46:29;6.73;;;2.63;;
65071;SDS011;51663;52.310;17.016;2023-04-03T00:49:37;5.13;;;2.80;;
65071;SDS011;51663;52.310;17.016;2023-04-03T00:52:41;4.37;;;2.63;;
65071;SDS011;51663;52.310;17.016;2023-04-03T00:55:51;6.93;;;2.80;;
65071;SDS011;51663;52.310;17.016;2023-04-03T00:59:19;6.97;;;2.40;;
65071;SDS011;51663;52.310;17.016;2023-04-03T01:02:32;5.33;;;2.30;;
65071;SDS011;51663;52.310;17.016;2023-04-03T01:05:52;6.13;;;2.43;;
65071;SDS011;51663;52.310;17.016;2023-04-03T01:09:01;4.47;;;2.30;;
65071;SDS011;51663;52.310;17.016;2023-04-03T01:15:26;3.23;;;2.10;;
65071;SDS011;51663;52.310;17.016;2023-04-03T01:18:38;4.20;;;2.03;;
65071;SDS011;51663;52.310;17.016;2023-04-03T01:25:09;4.67;;;2.57;;
65071;SDS011;51663;52.310;17.016;2023-04-03T01:28:18;5.60;;;2.10;;
65071;SDS011;51663;52.310;17.016;2023-04-03T01:31:45;4.50;;;2.00;;
65071;SDS011;51663;52.310;17.016;2023-04-03T01:34:57;5.80;;;1.83;;
65071;SDS011;51663;52.310;17.016;2023-04-03T01:38:05;6.63;;;2.20;;
65071;SDS011;51663;52.310;17.016;2023-04-03T01:41:15;5.53;;;1.70;;
65071;SDS011;51663;52.310;17.016;2023-04-03T01:44:33;5.77;;;1.90;;
65071;SDS011;51663;52.310;17.016;2023-04-03T01:47:38;3.00;;;1.80;;
65071;SDS011;51663;52.310;17.016;2023-04-03T01:50:41;5.40;;;2.07;;
65071;SDS011;51663;52.310;17.016;2023-04-03T01:53:50;5.77;;;2.00;;
65071;SDS011;51663;52.310;17.016;2023-04-03T01:57:02;3.57;;;1.73;;
65071;SDS011;51663;52.310;17.016;2023-04-03T02:00:08;8.23;;;1.70;;
65071;SDS011;51663;52.310;17.016;2023-04-03T02:03:13;6.00;;;2.37;;
65071;SDS011;51663;52.310;17.016;2023-04-03T02:06:23;4.43;;;1.70;;
65071;SDS011;51663;52.310;17.016;2023-04-03T02:09:38;4.20;;;1.73;;
65071;SDS011;51663;52.310;17.016;2023-04-03T02:12:54;6.20;;;1.93;;
65071;SDS011;51663;52.310;17.016;2023-04-03T02:16:12;5.13;;;2.00;;
65071;SDS011;51663;52.310;17.016;2023-04-03T02:19:21;3.90;;;1.67;;
65071;SDS011;51663;52.310;17.016;2023-04-03T02:22:30;4.80;;;1.77;;
65071;SDS011;51663;52.310;17.016;2023-04-03T02:25:38;3.87;;;1.60;;
65071;SDS011;51663;52.310;17.016;2023-04-03T02:28:49;4.70;;;1.80;;
65071;SDS011;51663;52.310;17.016;2023-04-03T02:31:51;9.13;;;1.70;;
65071;SDS011;51663;52.310;17.016;2023-04-03T02:35:10;3.57;;;1.73;;
65071;SDS011;51663;52.310;17.016;2023-04-03T02:38:18;4.03;;;1.40;;
65071;SDS011;51663;52.310;17.016;2023-04-03T02:41:28;5.87;;;2.10;;
65071;SDS011;51663;52.310;17.016;2023-04-03T02:44:42;4.83;;;1.73;;
65071;SDS011;51663;52.310;17.016;2023-04-03T02:47:49;5.50;;;1.87;;
65071;SDS011;51663;52.310;17.016;2023-04-03T02:50:52;4.50;;;1.33;;
65071;SDS011;51663;52.310;17.016;2023-04-03T02:54:01;4.23;;;1.90;;
65071;SDS011;51663;52.310;17.016;2023-04-03T02:57:05;4.23;;;2.00;;
65071;SDS011;51663;52.310;17.016;2023-04-03T03:00:14;4.77;;;1.90;;
65071;SDS011;51663;52.310;17.016;2023-04-03T03:03:28;5.60;;;1.57;;
65071;SDS011;51663;52.310;17.016;2023-04-03T03:06:36;5.50;;;2.07;;
65071;SDS011;51663;52.310;17.016;2023-04-03T03:09:47;2.77;;;1.27;;
65071;SDS011;51663;52.310;17.016;2023-04-03T03:12:57;4.63;;;1.93;;
65071;SDS011;51663;52.310;17.016;2023-04-03T03:16:09;4.70;;;2.37;;
65071;SDS011;51663;52.310;17.016;2023-04-03T03:19:15;8.53;;;2.40;;
65071;SDS011;51663;52.310;17.016;2023-04-03T03:22:24;13.70;;;4.77;;
65071;SDS011;51663;52.310;17.016;2023-04-03T03:25:28;5.30;;;2.57;;
65071;SDS011;51663;52.310;17.016;2023-04-03T03:28:32;6.13;;;2.30;;
65071;SDS011;51663;52.310;17.016;2023-04-03T03:31:39;4.60;;;2.30;;
65071;SDS011;51663;52.310;17.016;2023-04-03T03:34:43;7.40;;;2.97;;
65071;SDS011;51663;52.310;17.016;2023-04-03T03:37:57;5.67;;;3.50;;
65071;SDS011;51663;52.310;17.016;2023-04-03T03:41:02;4.17;;;2.23;;
65071;SDS011;51663;52.310;17.016;2023-04-03T03:44:21;6.30;;;1.83;;
65071;SDS011;51663;52.310;17.016;2023-04-03T03:47:30;4.53;;;1.97;;
65071;SDS011;51663;52.310;17.016;2023-04-03T03:50:33;5.80;;;2.33;;
65071;SDS011;51663;52.310;17.016;2023-04-03T03:53:43;5.10;;;2.30;;
65071;SDS011;51663;52.310;17.016;2023-04-03T03:56:52;6.77;;;2.00;;
65071;SDS011;51663;52.310;17.016;2023-04-03T04:00:03;4.73;;;1.90;;
65071;SDS011;51663;52.310;17.016;2023-04-03T04:03:07;3.90;;;1.47;;
65071;SDS011;51663;52.310;17.016;2023-04-03T04:06:14;6.17;;;1.90;;
65071;SDS011;51663;52.310;17.016;2023-04-03T04:09:26;4.20;;;1.40;;
65071;SDS011;51663;52.310;17.016;2023-04-03T04:12:35;5.37;;;1.40;;
65071;SDS011;51663;52.310;17.016;2023-04-03T04:15:40;3.07;;;1.77;;
65071;SDS011;51663;52.310;17.016;2023-04-03T04:18:44;3.47;;;2.30;;
65071;SDS011;51663;52.310;17.016;2023-04-03T04:21:47;6.43;;;2.00;;
65071;SDS011;51663;52.310;17.016;2023-04-03T04:24:53;3.80;;;1.60;;
65071;SDS011;51663;52.310;17.016;2023-04-03T04:27:59;3.43;;;1.80;;
65071;SDS011;51663;52.310;17.016;2023-04-03T04:31:13;4.90;;;1.90;;
65071;SDS011;51663;52.310;17.016;2023-04-03T04:34:28;5.30;;;1.83;;
65071;SDS011;51663;52.310;17.016;2023-04-03T04:37:33;6.53;;;1.93;;
65071;SDS011;51663;52.310;17.016;2023-04-03T04:40:42;4.83;;;2.10;;
65071;SDS011;51663;52.310;17.016;2023-04-03T04:43:49;4.20;;;1.87;;
65071;SDS011;51663;52.310;17.016;2023-04-03T04:46:54;5.93;;;2.23;;
65071;SDS011;51663;52.310;17.016;2023-04-03T04:50:07;5.77;;;2.93;;
65071;SDS011;51663;52.310;17.016;2023-04-03T04:53:15;3.47;;;1.97;;
65071;SDS011;51663;52.310;17.016;2023-04-03T04:56:19;7.27;;;3.20;;
65071;SDS011;51663;52.310;17.016;2023-04-03T04:59:27;5.90;;;3.37;;
65071;SDS011;51663;52.310;17.016;2023-04-03T05:02:32;8.77;;;2.07;;
65071;SDS011;51663;52.310;17.016;2023-04-03T05:05:38;3.03;;;1.70;;
65071;SDS011;51663;52.310;17.016;2023-04-03T05:08:52;7.53;;;3.10;;
65071;SDS011;51663;52.310;17.016;2023-04-03T05:11:55;3.03;;;2.20;;
65071;SDS011;51663;52.310;17.016;2023-04-03T05:15:03;5.23;;;2.23;;
65071;SDS011;51663;52.310;17.016;2023-04-03T05:18:14;3.20;;;2.10;;
65071;SDS011;51663;52.310;17.016;2023-04-03T05:21:25;5.80;;;3.10;;
65071;SDS011;51663;52.310;17.016;2023-04-03T05:24:31;6.63;;;3.43;;
65071;SDS011;51663;52.310;17.016;2023-04-03T05:27:34;6.70;;;2.57;;
65071;SDS011;51663;52.310;17.016;2023-04-03T05:30:54;4.07;;;2.53;;
65071;SDS011;51663;52.310;17.016;2023-04-03T05:34:00;9.93;;;3.57;;
65071;SDS011;51663;52.310;17.016;2023-04-03T05:37:06;4.83;;;2.83;;
65071;SDS011;51663;52.310;17.016;2023-04-03T05:40:15;4.40;;;2.10;;
65071;SDS011;51663;52.310;17.016;2023-04-03T05:43:24;7.53;;;2.57;;
65071;SDS011;51663;52.310;17.016;2023-04-03T05:46:28;8.00;;;1.90;;
65071;SDS011;51663;52.310;17.016;2023-04-03T05:49:43;5.50;;;2.00;;
65071;SDS011;51663;52.310;17.016;2023-04-03T05:52:57;4.23;;;1.30;;
65071;SDS011;51663;52.310;17.016;2023-04-03T05:56:05;2.47;;;1.67;;
65071;SDS011;51663;52.310;17.016;2023-04-03T05:59:08;3.23;;;1.33;;
65071;SDS011;51663;52.310;17.016;2023-04-03T06:02:12;4.40;;;1.93;;
65071;SDS011;51663;52.310;17.016;2023-04-03T06:05:19;2.43;;;1.83;;
65071;SDS011;51663;52.310;17.016;2023-04-03T06:08:25;4.27;;;1.87;;
65071;SDS011;51663;52.310;17.016;2023-04-03T06:11:35;4.17;;;1.80;;
65071;SDS011;51663;52.310;17.016;2023-04-03T06:14:41;7.30;;;2.80;;
65071;SDS011;51663;52.310;17.016;2023-04-03T06:17:58;8.73;;;2.27;;
65071;SDS011;51663;52.310;17.016;2023-04-03T06:21:01;2.60;;;1.77;;
65071;SDS011;51663;52.310;17.016;2023-04-03T06:24:09;3.73;;;2.00;;
65071;SDS011;51663;52.310;17.016;2023-04-03T06:27:31;5.13;;;2.00;;
65071;SDS011;51663;52.310;17.016;2023-04-03T06:30:42;4.40;;;2.30;;
65071;SDS011;51663;52.310;17.016;2023-04-03T06:33:58;3.57;;;1.80;;
65071;SDS011;51663;52.310;17.016;2023-04-03T06:37:05;6.33;;;1.57;;
65071;SDS011;51663;52.310;17.016;2023-04-03T06:40:28;5.53;;;1.70;;
65071;SDS011;51663;52.310;17.016;2023-04-03T06:43:36;3.83;;;1.93;;
65071;SDS011;51663;52.310;17.016;2023-04-03T06:46:47;6.07;;;2.60;;
65071;SDS011;51663;52.310;17.016;2023-04-03T06:50:06;4.77;;;2.10;;
65071;SDS011;51663;52.310;17.016;2023-04-03T06:53:29;2.87;;;1.60;;
65071;SDS011;51663;52.310;17.016;2023-04-03T06:56:50;3.13;;;1.73;;
65071;SDS011;51663;52.310;17.016;2023-04-03T06:59:52;2.73;;;2.40;;
65071;SDS011;51663;52.310;17.016;2023-04-03T07:03:02;6.43;;;3.43;;
65071;SDS011;51663;52.310;17.016;2023-04-03T07:06:05;4.70;;;2.43;;
65071;SDS011;51663;52.310;17.016;2023-04-03T07:09:09;5.17;;;2.00;;
65071;SDS011;51663;52.310;17.016;2023-04-03T07:12:12;4.20;;;1.70;;
65071;SDS011;51663;52.310;17.016;2023-04-03T07:15:14;6.67;;;2.03;;
65071;SDS011;51663;52.310;17.016;2023-04-03T07:18:17;3.20;;;2.67;;
65071;SDS011;51663;52.310;17.016;2023-04-03T07:21:19;2.37;;;1.73;;
65071;SDS011;51663;52.310;17.016;2023-04-03T07:24:22;3.93;;;1.47;;
65071;SDS011;51663;52.310;17.016;2023-04-03T07:27:24;2.43;;;1.93;;
65071;SDS011;51663;52.310;17.016;2023-04-03T07:30:27;4.73;;;1.80;;
65071;SDS011;51663;52.310;17.016;2023-04-03T07:33:29;3.20;;;1.87;;
65071;SDS011;51663;52.310;17.016;2023-04-03T07:36:32;4.47;;;1.80;;
65071;SDS011;51663;52.310;17.016;2023-04-03T07:39:35;3.43;;;1.70;;
65071;SDS011;51663;52.310;17.016;2023-04-03T07:42:37;3.63;;;2.27;;
65071;SDS011;51663;52.310;17.016;2023-04-03T07:45:39;3.57;;;2.43;;
65071;SDS011;51663;52.310;17.016;2023-04-03T07:48:42;3.33;;;1.80;;
65071;SDS011;51663;52.310;17.016;2023-04-03T07:51:44;3.17;;;1.77;;
65071;SDS011;51663;52.310;17.016;2023-04-03T07:54:47;3.23;;;1.60;;
65071;SDS011;51663;52.310;17.016;2023-04-03T07:57:49;2.50;;;1.60;;
65071;SDS011;51663;52.310;17.016;2023-04-03T08:00:52;1.50;;;1.30;;
65071;SDS011;51663;52.310;17.016;2023-04-03T08:03:54;2.37;;;1.97;;
65071;SDS011;51663;52.310;17.016;2023-04-03T08:06:57;15.30;;;6.63;;
65071;SDS011;51663;52.310;17.016;2023-04-03T08:09:59;2.20;;;1.57;;
65071;SDS011;51663;52.310;17.016;2023-04-03T08:13:02;3.27;;;1.97;;
65071;SDS011;51663;52.310;17.016;2023-04-03T08:16:11;3.90;;;1.80;;
65071;SDS011;51663;52.310;17.016;2023-04-03T08:19:25;1.57;;;1.47;;
65071;SDS011;51663;52.310;17.016;2023-04-03T08:22:27;3.00;;;1.70;;
65071;SDS011;51663;52.310;17.016;2023-04-03T08:25:31;3.03;;;1.23;;
65071;SDS011;51663;52.310;17.016;2023-04-03T08:28:33;4.17;;;2.10;;
65071;SDS011;51663;52.310;17.016;2023-04-03T08:31:35;12.63;;;7.20;;
65071;SDS011;51663;52.310;17.016;2023-04-03T08:34:38;4.63;;;1.90;;
65071;SDS011;51663;52.310;17.016;2023-04-03T08:37:42;6.60;;;3.73;;
65071;SDS011;51663;52.310;17.016;2023-04-03T08:40:45;4.50;;;2.37;;
65071;SDS011;51663;52.310;17.016;2023-04-03T08:44:24;6.30;;;3.93;;
65071;SDS011;51663;52.310;17.016;2023-04-03T08:47:55;2.13;;;1.10;;
65071;SDS011;51663;52.310;17.016;2023-04-03T08:51:15;6.03;;;3.13;;
65071;SDS011;51663;52.310;17.016;2023-04-03T08:54:54;3.40;;;2.33;;
65071;SDS011;51663;52.310;17.016;2023-04-03T08:57:58;1.90;;;1.23;;
65071;SDS011;51663;52.310;17.016;2023-04-03T09:01:31;1.80;;;1.23;;
65071;SDS011;51663;52.310;17.016;2023-04-03T09:04:41;9.17;;;2.43;;
65071;SDS011;51663;52.310;17.016;2023-04-03T09:15:32;4.80;;;3.67;;
65071;SDS011;51663;52.310;17.016;2023-04-03T09:24:03;3.27;;;2.40;;
65071;SDS011;51663;52.310;17.016;2023-04-03T09:28:18;6.27;;;3.83;;
65071;SDS011;51663;52.310;17.016;2023-04-03T09:34:37;5.00;;;2.47;;
65071;SDS011;51663;52.310;17.016;2023-04-03T09:37:52;3.20;;;1.63;;
65071;SDS011;51663;52.310;17.016;2023-04-03T09:41:04;4.53;;;2.03;;
65071;SDS011;51663;52.310;17.016;2023-04-03T09:44:20;4.50;;;2.70;;
65071;SDS011;51663;52.310;17.016;2023-04-03T09:47:27;6.60;;;4.00;;
65071;SDS011;51663;52.310;17.016;2023-04-03T09:50:35;3.23;;;2.53;;
65071;SDS011;51663;52.310;17.016;2023-04-03T09:53:42;2.27;;;1.90;;
65071;SDS011;51663;52.310;17.016;2023-04-03T09:57:15;4.07;;;1.60;;
65071;SDS011;51663;52.310;17.016;2023-04-03T10:01:33;4.60;;;3.57;;
65071;SDS011;51663;52.310;17.016;2023-04-03T10:04:40;3.70;;;2.53;;
65071;SDS011;51663;52.310;17.016;2023-04-03T10:07:43;6.17;;;4.23;;
65071;SDS011;51663;52.310;17.016;2023-04-03T10:18:06;4.93;;;2.60;;
65071;SDS011;51663;52.310;17.016;2023-04-03T10:22:21;7.07;;;4.47;;
65071;SDS011;51663;52.310;17.016;2023-04-03T10:25:39;5.87;;;2.40;;
65071;SDS011;51663;52.310;17.016;2023-04-03T10:36:33;3.20;;;1.77;;
65071;SDS011;51663;52.310;17.016;2023-04-03T10:50:44;18.23;;;8.97;;
65071;SDS011;51663;52.310;17.016;2023-04-03T10:57:16;12.57;;;5.37;;
65071;SDS011;51663;52.310;17.016;2023-04-03T11:00:47;23.03;;;8.30;;
65071;SDS011;51663;52.310;17.016;2023-04-03T11:03:57;17.37;;;8.37;;
65071;SDS011;51663;52.310;17.016;2023-04-03T11:10:50;2.43;;;1.80;;
65071;SDS011;51663;52.310;17.016;2023-04-03T11:13:57;2.83;;;2.17;;
65071;SDS011;51663;52.310;17.016;2023-04-03T11:20:32;3.80;;;2.93;;
65071;SDS011;51663;52.310;17.016;2023-04-03T11:24:02;4.97;;;2.70;;
65071;SDS011;51663;52.310;17.016;2023-04-03T11:27:15;8.93;;;3.50;;
65071;SDS011;51663;52.310;17.016;2023-04-03T11:40:48;4.20;;;3.43;;
65071;SDS011;51663;52.310;17.016;2023-04-03T11:44:05;3.23;;;1.70;;
65071;SDS011;51663;52.310;17.016;2023-04-03T11:50:50;4.13;;;2.60;;
65071;SDS011;51663;52.310;17.016;2023-04-03T11:54:34;6.77;;;2.83;;
65071;SDS011;51663;52.310;17.016;2023-04-03T11:57:47;4.23;;;1.97;;
65071;SDS011;51663;52.310;17.016;2023-04-03T12:01:42;8.23;;;4.40;;
65071;SDS011;51663;52.310;17.016;2023-04-03T12:11:41;5.33;;;1.70;;
65071;SDS011;51663;52.310;17.016;2023-04-03T12:14:45;2.60;;;2.00;;
65071;SDS011;51663;52.310;17.016;2023-04-03T12:17:49;5.57;;;3.47;;
65071;SDS011;51663;52.310;17.016;2023-04-03T12:20:54;5.63;;;1.67;;
65071;SDS011;51663;52.310;17.016;2023-04-03T12:24:02;2.37;;;1.83;;
65071;SDS011;51663;52.310;17.016;2023-04-03T12:30:29;21.13;;;9.93;;
65071;SDS011;51663;52.310;17.016;2023-04-03T12:33:36;7.80;;;4.77;;
65071;SDS011;51663;52.310;17.016;2023-04-03T12:37:07;3.27;;;2.30;;
65071;SDS011;51663;52.310;17.016;2023-04-03T12:47:28;17.60;;;7.60;;
65071;SDS011;51663;52.310;17.016;2023-04-03T12:50:34;7.57;;;4.10;;
65071;SDS011;51663;52.310;17.016;2023-04-03T12:53:37;5.03;;;2.60;;
65071;SDS011;51663;52.310;17.016;2023-04-03T12:56:40;7.70;;;4.97;;
65071;SDS011;51663;52.310;17.016;2023-04-03T12:59:43;12.60;;;6.13;;
65071;SDS011;51663;52.310;17.016;2023-04-03T13:02:48;11.90;;;6.30;;
65071;SDS011;51663;52.310;17.016;2023-04-03T13:05:50;3.73;;;3.00;;
65071;SDS011;51663;52.310;17.016;2023-04-03T13:08:54;5.17;;;2.20;;
65071;SDS011;51663;52.310;17.016;2023-04-03T13:12:11;5.33;;;2.83;;
65071;SDS011;51663;52.310;17.016;2023-04-03T13:15:21;3.90;;;2.33;;
65071;SDS011;51663;52.310;17.016;2023-04-03T13:18:33;3.50;;;2.23;;
65071;SDS011;51663;52.310;17.016;2023-04-03T13:21:36;5.33;;;2.23;;
65071;SDS011;51663;52.310;17.016;2023-04-03T13:24:39;2.67;;;2.07;;
65071;SDS011;51663;52.310;17.016;2023-04-03T13:27:41;8.17;;;4.07;;
65071;SDS011;51663;52.310;17.016;2023-04-03T13:34:48;2.97;;;2.47;;
65071;SDS011;51663;52.310;17.016;2023-04-03T13:37:55;4.17;;;2.57;;
65071;SDS011;51663;52.310;17.016;2023-04-03T13:41:03;7.57;;;4.43;;
65071;SDS011;51663;52.310;17.016;2023-04-03T13:44:31;6.10;;;2.80;;
65071;SDS011;51663;52.310;17.016;2023-04-03T13:47:39;2.13;;;1.60;;
65071;SDS011;51663;52.310;17.016;2023-04-03T13:50:57;9.77;;;4.70;;
65071;SDS011;51663;52.310;17.016;2023-04-03T13:57:33;3.90;;;2.80;;
65071;SDS011;51663;52.310;17.016;2023-04-03T14:00:55;7.90;;;4.97;;
65071;SDS011;51663;52.310;17.016;2023-04-03T14:04:09;2.43;;;1.47;;
65071;SDS011;51663;52.310;17.016;2023-04-03T14:07:20;8.57;;;5.10;;
65071;SDS011;51663;52.310;17.016;2023-04-03T14:10:22;9.43;;;4.47;;
65071;SDS011;51663;52.310;17.016;2023-04-03T14:13:25;6.20;;;2.23;;
65071;SDS011;51663;52.310;17.016;2023-04-03T14:16:28;4.90;;;2.77;;
65071;SDS011;51663;52.310;17.016;2023-04-03T14:19:34;6.57;;;2.40;;
65071;SDS011;51663;52.310;17.016;2023-04-03T14:22:37;5.00;;;2.80;;
65071;SDS011;51663;52.310;17.016;2023-04-03T14:25:40;4.30;;;3.27;;
65071;SDS011;51663;52.310;17.016;2023-04-03T14:28:43;3.47;;;1.63;;
65071;SDS011;51663;52.310;17.016;2023-04-03T14:31:48;4.37;;;2.20;;
65071;SDS011;51663;52.310;17.016;2023-04-03T14:34:58;7.20;;;3.30;;
65071;SDS011;51663;52.310;17.016;2023-04-03T14:38:01;9.63;;;4.77;;
65071;SDS011;51663;52.310;17.016;2023-04-03T14:41:03;2.70;;;2.20;;
65071;SDS011;51663;52.310;17.016;2023-04-03T14:44:16;14.97;;;5.53;;
65071;SDS011;51663;52.310;17.016;2023-04-03T14:47:19;19.50;;;6.73;;
65071;SDS011;51663;52.310;17.016;2023-04-03T14:50:32;16.83;;;5.93;;
65071;SDS011;51663;52.310;17.016;2023-04-03T14:53:34;18.90;;;8.97;;
65071;SDS011;51663;52.310;17.016;2023-04-03T14:56:40;7.23;;;3.90;;
65071;SDS011;51663;52.310;17.016;2023-04-03T14:59:43;4.50;;;3.30;;
65071;SDS011;51663;52.310;17.016;2023-04-03T15:02:47;3.90;;;3.03;;
65071;SDS011;51663;52.310;17.016;2023-04-03T15:05:50;7.20;;;3.47;;
65071;SDS011;51663;52.310;17.016;2023-04-03T15:08:52;7.00;;;4.07;;
65071;SDS011;51663;52.310;17.016;2023-04-03T15:11:57;9.73;;;7.60;;
65071;SDS011;51663;52.310;17.016;2023-04-03T15:15:00;5.80;;;3.00;;
65071;SDS011;51663;52.310;17.016;2023-04-03T15:18:04;18.20;;;7.80;;
65071;SDS011;51663;52.310;17.016;2023-04-03T15:21:07;3.33;;;3.03;;
65071;SDS011;51663;52.310;17.016;2023-04-03T15:24:09;10.53;;;6.03;;
65071;SDS011;51663;52.310;17.016;2023-04-03T15:27:13;4.33;;;3.37;;
65071;SDS011;51663;52.310;17.016;2023-04-03T15:30:17;4.53;;;3.97;;
65071;SDS011;51663;52.310;17.016;2023-04-03T15:33:20;4.20;;;3.47;;
65071;SDS011;51663;52.310;17.016;2023-04-03T15:36:23;3.47;;;2.40;;
65071;SDS011;51663;52.310;17.016;2023-04-03T15:39:35;6.00;;;3.83;;
65071;SDS011;51663;52.310;17.016;2023-04-03T15:42:37;2.30;;;2.10;;
65071;SDS011;51663;52.310;17.016;2023-04-03T15:45:40;5.80;;;3.07;;
65071;SDS011;51663;52.310;17.016;2023-04-03T15:48:43;3.47;;;2.63;;
65071;SDS011;51663;52.310;17.016;2023-04-03T15:51:46;4.30;;;2.87;;
65071;SDS011;51663;52.310;17.016;2023-04-03T15:54:48;2.07;;;1.87;;
65071;SDS011;51663;52.310;17.016;2023-04-03T15:57:51;6.97;;;4.93;;
65071;SDS011;51663;52.310;17.016;2023-04-03T16:00:54;25.03;;;8.03;;
65071;SDS011;51663;52.310;17.016;2023-04-03T16:03:59;8.80;;;4.03;;
65071;SDS011;51663;52.310;17.016;2023-04-03T16:07:02;3.50;;;2.03;;
65071;SDS011;51663;52.310;17.016;2023-04-03T16:10:06;5.37;;;2.63;;
65071;SDS011;51663;52.310;17.016;2023-04-03T16:13:09;5.83;;;2.63;;
65071;SDS011;51663;52.310;17.016;2023-04-03T16:16:12;3.27;;;1.90;;
65071;SDS011;51663;52.310;17.016;2023-04-03T16:19:14;5.57;;;2.70;;
65071;SDS011;51663;52.310;17.016;2023-04-03T16:22:17;5.80;;;3.20;;
65071;SDS011;51663;52.310;17.016;2023-04-03T16:25:19;4.00;;;2.60;;
65071;SDS011;51663;52.310;17.016;2023-04-03T16:28:22;2.57;;;1.93;;
65071;SDS011;51663;52.310;17.016;2023-04-03T16:31:25;30.73;;;16.97;;
65071;SDS011;51663;52.310;17.016;2023-04-03T16:34:28;17.20;;;5.40;;
65071;SDS011;51663;52.310;17.016;2023-04-03T16:37:33;13.13;;;6.30;;
65071;SDS011;51663;52.310;17.016;2023-04-03T16:40:36;15.50;;;5.77;;
65071;SDS011;51663;52.310;17.016;2023-04-03T16:44:00;10.23;;;5.53;;
65071;SDS011;51663;52.310;17.016;2023-04-03T16:47:03;7.57;;;4.77;;
65071;SDS011;51663;52.310;17.016;2023-04-03T16:50:05;8.97;;;5.40;;
65071;SDS011;51663;52.310;17.016;2023-04-03T16:53:08;11.63;;;5.37;;
65071;SDS011;51663;52.310;17.016;2023-04-03T16:56:11;3.97;;;2.87;;
65071;SDS011;51663;52.310;17.016;2023-04-03T16:59:13;4.60;;;2.50;;
65071;SDS011;51663;52.310;17.016;2023-04-03T17:02:15;4.30;;;3.50;;
65071;SDS011;51663;52.310;17.016;2023-04-03T17:05:18;7.27;;;3.20;;
65071;SDS011;51663;52.310;17.016;2023-04-03T17:08:20;14.73;;;5.00;;
65071;SDS011;51663;52.310;17.016;2023-04-03T17:11:22;8.83;;;4.50;;
65071;SDS011;51663;52.310;17.016;2023-04-03T17:14:24;13.43;;;6.60;;
65071;SDS011;51663;52.310;17.016;2023-04-03T17:17:27;26.33;;;10.13;;
65071;SDS011;51663;52.310;17.016;2023-04-03T17:20:30;14.57;;;6.67;;
65071;SDS011;51663;52.310;17.016;2023-04-03T17:23:34;12.03;;;6.20;;
65071;SDS011;51663;52.310;17.016;2023-04-03T17:26:39;9.47;;;5.80;;
65071;SDS011;51663;52.310;17.016;2023-04-03T17:29:43;25.80;;;12.73;;
65071;SDS011;51663;52.310;17.016;2023-04-03T17:32:45;16.47;;;9.37;;
65071;SDS011;51663;52.310;17.016;2023-04-03T17:35:49;15.03;;;9.03;;
65071;SDS011;51663;52.310;17.016;2023-04-03T17:38:51;100.67;;;36.00;;
65071;SDS011;51663;52.310;17.016;2023-04-03T17:41:53;38.43;;;16.20;;
65071;SDS011;51663;52.310;17.016;2023-04-03T17:44:56;19.43;;;9.93;;
65071;SDS011;51663;52.310;17.016;2023-04-03T17:47:58;35.20;;;18.10;;
65071;SDS011;51663;52.310;17.016;2023-04-03T17:51:06;9.50;;;6.87;;
65071;SDS011;51663;52.310;17.016;2023-04-03T17:54:11;14.17;;;8.43;;
65071;SDS011;51663;52.310;17.016;2023-04-03T17:57:13;4.30;;;3.90;;
65071;SDS011;51663;52.310;17.016;2023-04-03T18:00:16;8.63;;;5.63;;
65071;SDS011;51663;52.310;17.016;2023-04-03T18:03:21;21.47;;;11.47;;
65071;SDS011;51663;52.310;17.016;2023-04-03T18:06:29;26.67;;;13.17;;
65071;SDS011;51663;52.310;17.016;2023-04-03T18:09:34;76.00;;;44.53;;
65071;SDS011;51663;52.310;17.016;2023-04-03T18:12:38;56.43;;;24.43;;
65071;SDS011;51663;52.310;17.016;2023-04-03T18:15:46;205.60;;;67.50;;
65071;SDS011;51663;52.310;17.016;2023-04-03T18:18:54;374.23;;;130.83;;
65071;SDS011;51663;52.310;17.016;2023-04-03T18:22:19;144.50;;;41.93;;
65071;SDS011;51663;52.310;17.016;2023-04-03T18:25:23;53.60;;;15.70;;
65071;SDS011;51663;52.310;17.016;2023-04-03T18:28:25;48.70;;;14.03;;
65071;SDS011;51663;52.310;17.016;2023-04-03T18:31:29;50.40;;;16.60;;
65071;SDS011;51663;52.310;17.016;2023-04-03T18:34:34;46.17;;;14.10;;
65071;SDS011;51663;52.310;17.016;2023-04-03T18:37:37;21.97;;;8.43;;
65071;SDS011;51663;52.310;17.016;2023-04-03T18:40:40;34.23;;;12.07;;
65071;SDS011;51663;52.310;17.016;2023-04-03T18:43:43;20.47;;;7.00;;
65071;SDS011;51663;52.310;17.016;2023-04-03T18:46:46;27.57;;;9.20;;
65071;SDS011;51663;52.310;17.016;2023-04-03T18:49:49;22.97;;;8.67;;
65071;SDS011;51663;52.310;17.016;2023-04-03T18:52:51;8.97;;;5.27;;
65071;SDS011;51663;52.310;17.016;2023-04-03T18:55:54;14.50;;;5.80;;
65071;SDS011;51663;52.310;17.016;2023-04-03T18:59:08;40.63;;;11.23;;
65071;SDS011;51663;52.310;17.016;2023-04-03T19:06:18;20.50;;;8.77;;
65071;SDS011;51663;52.310;17.016;2023-04-03T19:09:27;44.97;;;14.37;;
65071;SDS011;51663;52.310;17.016;2023-04-03T19:13:16;50.90;;;19.50;;
65071;SDS011;51663;52.310;17.016;2023-04-03T19:17:09;35.17;;;10.77;;
65071;SDS011;51663;52.310;17.016;2023-04-03T19:20:16;16.83;;;5.93;;
65071;SDS011;51663;52.310;17.016;2023-04-03T19:23:51;16.03;;;8.00;;
65071;SDS011;51663;52.310;17.016;2023-04-03T19:27:31;17.97;;;7.33;;
65071;SDS011;51663;52.310;17.016;2023-04-03T19:30:39;20.07;;;8.40;;
65071;SDS011;51663;52.310;17.016;2023-04-03T19:33:48;10.70;;;5.53;;
65071;SDS011;51663;52.310;17.016;2023-04-03T19:36:56;12.23;;;5.07;;
65071;SDS011;51663;52.310;17.016;2023-04-03T19:40:27;13.23;;;5.67;;
65071;SDS011;51663;52.310;17.016;2023-04-03T19:43:44;12.23;;;5.60;;
65071;SDS011;51663;52.310;17.016;2023-04-03T19:47:09;19.07;;;7.57;;
65071;SDS011;51663;52.310;17.016;2023-04-03T19:50:15;16.87;;;7.90;;
65071;SDS011;51663;52.310;17.016;2023-04-03T19:53:19;17.40;;;7.17;;
65071;SDS011;51663;52.310;17.016;2023-04-03T19:56:25;10.70;;;4.57;;
65071;SDS011;51663;52.310;17.016;2023-04-03T19:59:27;11.60;;;6.23;;
65071;SDS011;51663;52.310;17.016;2023-04-03T20:02:33;18.03;;;7.90;;
65071;SDS011;51663;52.310;17.016;2023-04-03T20:06:01;24.07;;;10.73;;
65071;SDS011;51663;52.310;17.016;2023-04-03T20:09:53;12.47;;;5.93;;
65071;SDS011;51663;52.310;17.016;2023-04-03T20:12:56;9.80;;;5.30;;
65071;SDS011;51663;52.310;17.016;2023-04-03T20:16:05;11.47;;;6.47;;
65071;SDS011;51663;52.310;17.016;2023-04-03T20:19:08;10.57;;;6.13;;
65071;SDS011;51663;52.310;17.016;2023-04-03T20:22:12;11.40;;;6.20;;
65071;SDS011;51663;52.310;17.016;2023-04-03T20:25:14;13.00;;;5.77;;